Time;durP1;ratioP1;P1;durP2;ratioP2;P2;SDS_P1;SDS_P2;PMS_P1;PMS_P2;Temp;Humidity;BMP_temperature;BMP_pressure;BME280_temperature;BME280_humidity;BME280_pressure;Samples;Min_cycle;Max_cycle;Signal;HPM_P1;HPM_P2
2021/03/30 00:01:36;;;;;;;;;;;;;;;15.02;60.03;101182.72;4349433;32;20018;-88
2021/03/30 00:04:01;;;;;;;;;;;;;;;15.01;60.03;101186.25;4348534;32;33307;-88
2021/03/30 00:06:26;;;;;;;;;;;;;;;14.97;60.02;101174.12;4349059;32;20006;-89
2021/03/30 00:08:51;;;;;;;;;;;;;;;14.90;60.01;101180.41;4348418;32;28963;-88
2021/03/30 00:11:16;;;;;;;;;;;;;;;14.93;60.01;101172.50;4349319;32;20010;-89
2021/03/30 00:13:42;;;;;;;;;;;;;;;14.91;60.02;101171.66;4349044;32;20033;-88
2021/03/30 00:16:07;;;;;;;;;;;;;;;15.17;60.03;101178.81;4348790;32;24217;-90
2021/03/30 00:18:32;;;;;;;;;;;;;;;15.35;60.05;101169.53;4348758;32;20305;-90
2021/03/30 00:20:57;;;;;;;;;;;;;;;15.06;60.03;101170.38;4349094;32;20002;-90
2021/03/30 00:23:23;;;;;;;;;;;;;;;15.05;60.02;101177.38;4349012;32;19979;-89
2021/03/30 00:25:48;;;;;;;;;;;;;;;15.02;60.02;101174.84;4349100;32;19995;-89
2021/03/30 00:28:13;;;;;;;;;;;;;;;15.00;60.02;101175.78;4348978;32;20371;-90
2021/03/30 00:30:38;;;;;;;;;;;;;;;15.10;60.03;101174.62;4348324;32;33376;-90
2021/03/30 00:33:04;;;;;;;;;;;;;;;15.12;60.03;101172.81;4349040;32;20019;-89
2021/03/30 00:35:29;;;;;;;;;;;;;;;15.13;60.03;101171.06;4348985;32;20042;-89
2021/03/30 00:37:54;;;;;;;;;;;;;;;14.83;60.01;101168.38;4348478;32;29771;-89
2021/03/30 00:40:19;;;;;;;;;;;;;;;14.88;60.02;101174.34;4349183;32;20408;-90
2021/03/30 00:42:45;;;;;;;;;;;;;;;14.89;60.01;101168.19;4349232;32;20037;-89
2021/03/30 00:45:10;;;;;;;;;;;;;;;14.89;60.01;101169.97;4349211;32;20029;-89
2021/03/30 00:47:36;;;;;;;;;;;;;;;14.80;60.01;101165.84;4349058;32;20391;-89
2021/03/30 00:50:01;;;;;;;;;;;;;;;14.85;60.01;101168.34;4362175;32;20011;-90
2021/03/30 00:52:26;;;;;;;;;;;;;;;14.83;60.01;101168.38;4349014;32;20003;-90
2021/03/30 00:54:52;;;;;;;;;;;;;;;14.95;60.02;101168.06;4348973;32;19975;-90
2021/03/30 00:57:17;;;;;;;;;;;;;;;14.88;60.01;101168.25;4348706;32;20239;-90
2021/03/30 00:59:42;;;;;;;;;;;;;;;14.93;60.01;101164.62;4361174;32;20002;-91
2021/03/30 01:02:07;;;;;;;;;;;;;;;14.73;60.01;101175.63;4348897;32;20357;-91
2021/03/30 01:04:34;;;;;;;;;;;;;;;14.82;60.01;101171.91;4348473;32;29315;-91
2021/03/30 01:06:59;;;;;;;;;;;;;;;14.78;60.00;101169.41;4349415;32;20021;-91
2021/03/30 01:09:34;;;;;;;;;;;;;;;14.83;60.01;101178.84;4336889;32;20022;-90
2021/03/30 01:12:08;;;;;;;;;;;;;;;14.92;60.01;101162.91;4361565;32;19983;-91
2021/03/30 01:14:53;;;;;;;;;;;;;;;14.97;60.02;101170.62;4361497;32;20317;-91
2021/03/30 01:17:22;;;;;;;;;;;;;;;14.86;60.02;101178.78;4361758;32;19983;-90
2021/03/30 01:19:58;;;;;;;;;;;;;;;14.85;60.01;101171.81;4349312;32;20006;-91
2021/03/30 01:22:33;;;;;;;;;;;;;;;14.82;60.01;101166.66;4349100;32;19998;-90
2021/03/30 01:24:58;;;;;;;;;;;;;;;14.95;60.02;101157.56;4361168;32;20280;-90
2021/03/30 01:27:23;;;;;;;;;;;;;;;14.75;60.00;101167.72;4348638;32;20007;-89
2021/03/30 01:29:49;;;;;;;;;;;;;;;14.84;60.01;101166.63;4361113;32;19991;-90
2021/03/30 01:32:33;;;;;;;;;;;;;;;14.79;60.01;101160.62;4336550;32;19983;-91
2021/03/30 01:34:59;;;;;;;;;;;;;;;14.88;60.01;101160.38;4362757;32;20047;-89
2021/03/30 01:37:24;;;;;;;;;;;;;;;14.88;60.01;101156.00;4348948;32;20010;-90
2021/03/30 01:39:50;;;;;;;;;;;;;;;14.89;60.02;101165.59;4361170;32;19999;-88
2021/03/30 01:42:16;;;;;;;;;;;;;;;14.91;60.01;101161.19;4336478;32;20007;-88
2021/03/30 01:44:41;;;;;;;;;;;;;;;14.88;60.01;101153.38;4336074;32;19986;-87
2021/03/30 01:47:07;;;;;;;;;;;;;;;14.88;60.01;101150.75;4348526;32;20017;-88
2021/03/30 01:49:32;;;;;;;;;;;;;;;14.83;60.01;101154.41;4348539;32;20020;-88
2021/03/30 01:51:58;;;;;;;;;;;;;;;14.99;60.02;101145.22;4348364;32;20284;-88
2021/03/30 01:54:23;;;;;;;;;;;;;;;14.98;60.02;101146.13;4348502;32;20103;-88
2021/03/30 01:56:48;;;;;;;;;;;;;;;14.89;60.02;101141.13;4348022;32;20360;-87
2021/03/30 01:59:14;;;;;;;;;;;;;;;14.94;60.02;101139.25;4348157;32;20010;-88
2021/03/30 02:01:39;;;;;;;;;;;;;;;14.95;60.02;101138.34;4347683;32;19975;-88
2021/03/30 02:04:05;;;;;;;;;;;;;;;14.82;60.01;101131.72;4348531;32;19983;-88
2021/03/30 02:06:31;;;;;;;;;;;;;;;14.94;60.02;101137.50;4348573;32;20022;-88
2021/03/30 02:09:00;;;;;;;;;;;;;;;14.89;60.01;101136.75;4348626;32;20009;-88
2021/03/30 02:11:40;;;;;;;;;;;;;;;14.92;60.01;101141.06;4348754;32;19975;-88
2021/03/30 02:14:05;;;;;;;;;;;;;;;14.86;60.02;101144.69;4362022;32;19975;-88
2021/03/30 02:16:33;;;;;;;;;;;;;;;14.74;60.01;101142.41;4347616;32;33517;-87
2021/03/30 02:19:08;;;;;;;;;;;;;;;14.93;60.01;101143.66;4348508;32;19995;-87
2021/03/30 02:21:33;;;;;;;;;;;;;;;14.86;60.00;101136.84;4336647;32;19983;-87
2021/03/30 02:23:59;;;;;;;;;;;;;;;14.94;60.02;101132.25;4348671;32;19998;-88
2021/03/30 02:26:24;;;;;;;;;;;;;;;14.94;60.02;101134.87;4335942;32;20033;-90
2021/03/30 02:28:56;;;;;;;;;;;;;;;14.84;60.01;101129.91;4348215;32;20022;-89
2021/03/30 02:31:21;;;;;;;;;;;;;;;14.95;60.02;101130.50;4349164;32;19983;-90
2021/03/30 02:33:47;;;;;;;;;;;;;;;15.01;60.02;101141.66;4348465;32;20010;-90
2021/03/30 02:36:12;;;;;;;;;;;;;;;14.87;60.02;101135.94;4348329;32;20492;-90
2021/03/30 02:38:37;;;;;;;;;;;;;;;14.80;60.01;101129.16;4361139;32;29223;-90
2021/03/30 02:41:02;;;;;;;;;;;;;;;14.82;60.01;101121.22;4360396;32;20698;-90
2021/03/30 02:43:27;;;;;;;;;;;;;;;14.77;60.00;101124.00;4347658;32;24175;-90
2021/03/30 02:45:53;;;;;;;;;;;;;;;14.85;60.00;101134.25;4347485;32;28139;-89
2021/03/30 02:48:18;;;;;;;;;;;;;;;14.86;60.02;101134.22;4347889;32;19991;-89
2021/03/30 02:50:43;;;;;;;;;;;;;;;14.88;60.01;101129.78;4347376;32;21642;-87
2021/03/30 02:53:08;;;;;;;;;;;;;;;14.68;60.00;101126.88;4347340;32;26002;-89
2021/03/30 02:55:34;;;;;;;;;;;;;;;14.66;60.00;101126.03;4347825;32;19988;-89
2021/03/30 02:57:59;;;;;;;;;;;;;;;14.71;60.00;101124.16;4347735;32;20022;-89
2021/03/30 03:00:25;;;;;;;;;;;;;;;14.67;60.00;101117.28;4361344;32;20261;-88
2021/03/30 03:02:50;;;;;;;;;;;;;;;14.81;60.01;101116.91;4361554;32;20006;-88
2021/03/30 03:05:15;;;;;;;;;;;;;;;14.76;60.01;101121.41;4347043;32;28400;-88
2021/03/30 03:07:40;;;;;;;;;;;;;;;14.64;60.00;101118.19;4347844;32;20025;-88
2021/03/30 03:10:06;;;;;;;;;;;;;;;14.73;60.01;101123.22;4346874;32;29556;-88
2021/03/30 03:12:31;;;;;;;;;;;;;;;14.69;60.00;101118.09;4349013;32;19999;-89
2021/03/30 03:14:57;;;;;;;;;;;;;;;14.69;60.00;101113.72;4349697;32;20042;-90
2021/03/30 03:17:22;;;;;;;;;;;;;;;14.63;60.00;101106.00;4349616;32;19983;-88
2021/03/30 03:19:47;;;;;;;;;;;;;;;14.58;59.99;101110.50;4348530;32;35423;-89
2021/03/30 03:22:12;;;;;;;;;;;;;;;14.53;59.99;101109.78;4349127;32;20014;-89
2021/03/30 03:24:38;;;;;;;;;;;;;;;14.57;60.00;101115.81;4349122;32;21559;-89
2021/03/30 03:27:03;;;;;;;;;;;;;;;14.65;60.00;101112.06;4349355;32;20309;-88
2021/03/30 03:29:29;;;;;;;;;;;;;;;14.55;60.00;101115.84;4349483;32;19979;-89
2021/03/30 03:31:54;;;;;;;;;;;;;;;14.63;60.00;101115.63;4349345;32;19995;-90
2021/03/30 03:34:19;;;;;;;;;;;;;;;14.49;59.99;101113.41;4348633;32;32312;-89
2021/03/30 03:36:45;;;;;;;;;;;;;;;14.39;59.98;101122.34;4362379;32;31425;-89
2021/03/30 03:39:11;;;;;;;;;;;;;;;14.51;59.99;101108.97;4349293;32;20018;-89
2021/03/30 03:41:36;;;;;;;;;;;;;;;14.57;59.99;101113.19;4337066;32;20034;-89
2021/03/30 03:44:02;;;;;;;;;;;;;;;14.49;60.00;101115.16;4349294;32;20011;-89
2021/03/30 03:46:27;;;;;;;;;;;;;;;14.49;59.99;101115.16;4336968;32;20022;-88
2021/03/30 03:48:52;;;;;;;;;;;;;;;14.39;59.99;101117.97;4361604;32;20026;-89
2021/03/30 03:51:18;;;;;;;;;;;;;;;14.35;59.99;101111.09;4349134;32;20023;-90
2021/03/30 03:53:43;;;;;;;;;;;;;;;14.33;59.98;101104.16;4349529;32;19975;-89
2021/03/30 03:56:08;;;;;;;;;;;;;;;14.41;59.99;101110.06;4349443;32;20371;-90
2021/03/30 03:58:37;;;;;;;;;;;;;;;14.50;59.99;101107.25;4349135;32;19999;-89
2021/03/30 04:01:02;;;;;;;;;;;;;;;14.32;59.97;101111.16;4349305;32;19975;-88
2021/03/30 04:03:29;;;;;;;;;;;;;;;14.35;59.98;101121.56;4336894;32;20039;-89
2021/03/30 04:06:02;;;;;;;;;;;;;;;14.27;59.98;101107.81;4361507;32;20006;-88
2021/03/30 04:08:29;;;;;;;;;;;;;;;14.30;59.97;101110.34;4349261;32;20003;-88
2021/03/30 04:10:54;;;;;;;;;;;;;;;14.39;59.99;101102.25;4349120;32;20430;-89
2021/03/30 04:13:20;;;;;;;;;;;;;;;14.35;59.99;101095.38;4349113;32;19995;-87
2021/03/30 04:15:45;;;;;;;;;;;;;;;14.38;59.98;101097.91;4349155;32;20050;-87
2021/03/30 04:18:10;;;;;;;;;;;;;;;14.40;59.99;101093.47;4349109;32;20452;-86
2021/03/30 04:20:36;;;;;;;;;;;;;;;14.34;59.99;101095.41;4361316;32;20031;-85
2021/03/30 04:23:01;;;;;;;;;;;;;;;14.38;59.98;101090.03;4347874;32;31053;-86
2021/03/30 04:25:26;;;;;;;;;;;;;;;14.37;59.98;101097.94;4362214;32;31435;-87
2021/03/30 04:27:52;;;;;;;;;;;;;;;14.49;59.99;101096.81;4348818;32;20001;-87
2021/03/30 04:30:17;;;;;;;;;;;;;;;14.61;59.99;101096.47;4362757;32;19978;-88
2021/03/30 04:32:43;;;;;;;;;;;;;;;14.62;59.99;101101.66;4362845;32;20013;-87
2021/03/30 04:35:09;;;;;;;;;;;;;;;14.71;60.00;101108.44;4362232;32;22055;-86
2021/03/30 04:37:34;;;;;;;;;;;;;;;14.65;60.00;101098.97;4348993;32;19976;-87
2021/03/30 04:39:59;;;;;;;;;;;;;;;14.70;59.99;101104.09;4349062;32;19995;-86
2021/03/30 04:42:24;;;;;;;;;;;;;;;14.38;59.98;101103.16;4349066;32;20030;-87
2021/03/30 04:44:49;;;;;;;;;;;;;;;14.47;59.98;101109.09;4336103;32;29989;-87
2021/03/30 04:47:15;;;;;;;;;;;;;;;14.50;59.99;101106.38;4362165;32;22853;-87
2021/03/30 04:49:40;;;;;;;;;;;;;;;14.39;59.99;101104.87;4348934;32;20045;-87
2021/03/30 04:52:06;;;;;;;;;;;;;;;14.26;59.98;101110.47;4348396;32;30059;-87
2021/03/30 04:54:31;;;;;;;;;;;;;;;14.43;59.98;101109.19;4362225;32;20037;-85
2021/03/30 04:56:57;;;;;;;;;;;;;;;14.28;59.98;101109.53;4362433;32;19976;-85
2021/03/30 04:59:22;;;;;;;;;;;;;;;14.35;59.98;101111.09;4362144;32;19971;-86
2021/03/30 05:01:47;;;;;;;;;;;;;;;14.30;59.97;101112.97;4348536;32;20003;-87
2021/03/30 05:04:13;;;;;;;;;;;;;;;14.32;59.97;101116.41;4348774;32;19983;-87
2021/03/30 05:06:38;;;;;;;;;;;;;;;14.33;59.98;101119.88;4362015;32;24599;-87
2021/03/30 05:09:03;;;;;;;;;;;;;;;14.49;59.99;101117.78;4360076;32;36254;-87
2021/03/30 05:11:29;;;;;;;;;;;;;;;14.49;59.99;101109.91;4348674;32;20073;-87
2021/03/30 05:13:54;;;;;;;;;;;;;;;14.62;59.99;101106.03;4348222;32;24678;-87
2021/03/30 05:16:19;;;;;;;;;;;;;;;14.64;60.00;101115.59;4348062;32;30281;-88
2021/03/30 05:18:44;;;;;;;;;;;;;;;14.75;60.00;101112.69;4361849;32;32396;-88
2021/03/30 05:21:10;;;;;;;;;;;;;;;14.83;60.00;101113.31;4348598;32;20050;-87
2021/03/30 05:23:35;;;;;;;;;;;;;;;15.09;60.02;101117.84;4336392;32;20341;-88
2021/03/30 05:26:00;;;;;;;;;;;;;;;14.98;60.01;101112.03;4348681;32;20045;-88
2021/03/30 05:28:25;;;;;;;;;;;;;;;15.10;60.02;101111.69;4348349;32;19971;-86
2021/03/30 05:30:51;;;;;;;;;;;;;;;15.17;60.03;101118.50;4348614;32;20042;-87
2021/03/30 05:33:16;;;;;;;;;;;;;;;15.21;60.03;101116.62;4348598;32;20327;-88
2021/03/30 05:35:41;;;;;;;;;;;;;;;15.30;60.03;101118.97;4361127;32;20041;-88
2021/03/30 05:38:06;;;;;;;;;;;;;;;15.38;60.03;101118.72;4348402;32;19991;-87
2021/03/30 05:40:32;;;;;;;;;;;;;;;15.52;60.04;101124.44;4348526;32;19987;-87
2021/03/30 05:42:57;;;;;;;;;;;;;;;15.59;60.04;101124.22;4348610;32;20070;-87
2021/03/30 05:45:23;;;;;;;;;;;;;;;15.67;60.05;101121.37;4348394;32;19983;-87
2021/03/30 05:47:48;;;;;;;;;;;;;;;15.64;60.05;101117.09;4348855;32;20332;-89
2021/03/30 05:50:14;;;;;;;;;;;;;;;15.82;60.06;101117.41;4336287;32;20014;-87
2021/03/30 05:55:15;;;;;;;;;;;;;;;16.09;60.08;101118.28;4341004;32;20010;-86
2021/03/30 05:57:40;;;;;;;;;;;;;;;16.01;60.07;101136.91;4347034;32;20794;-86
2021/03/30 06:00:06;;;;;;;;;;;;;;;16.09;60.07;101129.66;4346860;32;39889;-86
2021/03/30 06:02:44;;;;;;;;;;;;;;;16.06;60.07;101136.75;4348069;32;20011;-85
2021/03/30 06:05:12;;;;;;;;;;;;;;;15.93;60.07;101141.56;4335657;32;20308;-85
2021/03/30 06:07:37;;;;;;;;;;;;;;;16.05;60.07;101138.53;4361776;32;19988;-85
2021/03/30 06:10:04;;;;;;;;;;;;;;;15.90;60.06;101147.78;4347808;32;20008;-86
2021/03/30 06:12:29;;;;;;;;;;;;;;;15.82;60.06;101139.25;4361363;32;19955;-88
2021/03/30 06:14:58;;;;;;;;;;;;;;;15.67;60.05;101146.78;4347239;32;28696;-85
2021/03/30 06:17:23;;;;;;;;;;;;;;;15.82;60.06;101147.12;4335438;32;19983;-85
2021/03/30 06:19:55;;;;;;;;;;;;;;;15.82;60.06;101146.28;4360533;32;36536;-85
2021/03/30 06:22:21;;;;;;;;;;;;;;;15.81;60.06;101134.06;4347990;32;20337;-85
2021/03/30 06:24:46;;;;;;;;;;;;;;;15.77;60.06;101132.44;4359812;32;20265;-85
2021/03/30 06:27:14;;;;;;;;;;;;;;;15.86;60.06;101132.19;4361216;32;20018;-85
2021/03/30 06:29:39;;;;;;;;;;;;;;;15.64;60.05;101145.09;4361368;32;19987;-85
2021/03/30 06:32:08;;;;;;;;;;;;;;;15.94;60.07;101151.16;4361415;32;19994;-85
2021/03/30 06:34:34;;;;;;;;;;;;;;;15.81;60.06;101150.66;4347671;32;19979;-85
2021/03/30 06:36:59;;;;;;;;;;;;;;;15.69;60.05;101144.97;4347828;32;20025;-85
2021/03/30 06:39:37;;;;;;;;;;;;;;;15.79;60.06;101149.00;4347368;32;20007;-85
2021/03/30 06:42:10;;;;;;;;;;;;;;;15.81;60.06;101155.06;4360999;32;19997;-85
2021/03/30 06:44:36;;;;;;;;;;;;;;;15.97;60.06;101145.81;4361196;32;20416;-85
2021/03/30 06:47:04;;;;;;;;;;;;;;;16.09;60.07;101150.69;4360821;32;20038;-85
2021/03/30 06:49:30;;;;;;;;;;;;;;;16.14;60.07;101148.75;4361268;32;19991;-85
2021/03/30 06:51:55;;;;;;;;;;;;;;;16.04;60.07;101152.56;4361053;32;20010;-85
2021/03/30 06:54:20;;;;;;;;;;;;;;;16.20;60.08;101153.81;4361034;32;20026;-85
2021/03/30 06:56:46;;;;;;;;;;;;;;;16.19;60.08;101159.97;4347151;32;20006;-85
2021/03/30 06:59:11;;;;;;;;;;;;;;;16.16;60.08;101156.59;4361075;32;20026;-85
2021/03/30 07:01:37;;;;;;;;;;;;;;;16.39;60.10;101163.72;4347055;32;19994;-85
2021/03/30 07:04:02;;;;;;;;;;;;;;;16.42;60.09;101167.09;4346571;32;33290;-85
2021/03/30 07:06:27;;;;;;;;;;;;;;;16.43;60.09;101162.69;4346900;32;20001;-86
2021/03/30 07:08:52;;;;;;;;;;;;;;;16.62;60.11;101171.69;4346548;32;27784;-85
2021/03/30 07:11:18;;;;;;;;;;;;;;;16.83;60.11;101163.06;4346020;32;34072;-85
2021/03/30 07:13:43;;;;;;;;;;;;;;;16.87;60.12;101163.81;4346370;32;19979;-85
2021/03/30 07:16:21;;;;;;;;;;;;;;;16.94;60.12;101167.94;4358684;32;20347;-85
2021/03/30 07:18:50;;;;;;;;;;;;;;;17.00;60.11;101158.97;4346356;32;19991;-85
2021/03/30 07:21:21;;;;;;;;;;;;;;;17.06;60.12;101161.41;4360067;32;19983;-85
2021/03/30 07:23:47;;;;;;;;;;;;;;;17.16;60.13;101154.88;4346502;32;20001;-85
2021/03/30 07:26:14;;;;;;;;;;;;;;;17.26;60.13;101156.22;4346278;32;20288;-85
2021/03/30 07:28:45;;;;;;;;;;;;;;;17.42;60.15;101151.25;4359790;32;20359;-85
2021/03/30 07:31:12;;;;;;;;;;;;;;;17.61;60.15;101148.78;4359990;32;20043;-85
2021/03/30 07:33:47;;;;;;;;;;;;;;;17.87;60.17;101142.53;4346301;32;19979;-85
2021/03/30 07:36:13;;;;;;;;;;;;;;;17.87;60.17;101151.28;4359845;32;19975;-84
2021/03/30 07:38:39;;;;;;;;;;;;;;;18.01;60.18;101153.38;4345913;32;20087;-85
2021/03/30 07:41:04;;;;;;;;;;;;;;;17.92;60.18;101154.59;4346321;32;20670;-85
2021/03/30 07:43:30;;;;;;;;;;;;;;;17.96;60.18;101156.19;4346129;32;19979;-85
2021/03/30 07:45:56;;;;;;;;;;;;;;;18.12;60.18;101155.56;4346100;32;20289;-85
2021/03/30 07:48:23;;;;;;;;;;;;;;;18.19;60.18;101167.56;4359696;32;19980;-85
2021/03/30 07:50:52;;;;;;;;;;;;;;;18.11;60.18;101167.88;4346341;32;20067;-84
2021/03/30 07:53:55;;;;;;;;;;;;;;;18.12;60.18;101158.19;4359542;32;20005;-85
2021/03/30 07:56:23;;;;;;;;;;;;;;;18.26;60.19;101166.41;4283677;33;20032;-85
2021/03/30 07:58:48;;;;;;;;;;;;;;;18.12;60.18;101166.97;4346646;32;20013;-85
2021/03/30 08:01:14;;;;;;;;;;;;;;;18.18;60.18;101173.75;4348010;32;20317;-85
2021/03/30 08:03:40;;;;;;;;;;;;;;;18.24;60.19;101170.91;4361739;32;20017;-85
2021/03/30 08:06:19;;;;;;;;;;;;;;;18.17;60.19;101172.03;4348079;32;20046;-85
2021/03/30 08:08:45;;;;;;;;;;;;;;;18.09;60.18;101167.94;4335538;32;20046;-85
2021/03/30 08:11:10;;;;;;;;;;;;;;;18.41;60.19;101171.03;4348141;32;19996;-86
2021/03/30 08:13:35;;;;;;;;;;;;;;;18.34;60.19;101173.06;4361701;32;20391;-86
2021/03/30 08:16:07;;;;;;;;;;;;;;;18.05;60.17;101184.81;4347924;32;20748;-85
2021/03/30 08:18:34;;;;;;;;;;;;;;;18.09;60.18;101188.16;4347827;32;19995;-85
2021/03/30 08:21:03;;;;;;;;;;;;;;;18.25;60.19;101184.00;4347383;32;19987;-85
2021/03/30 08:23:29;;;;;;;;;;;;;;;18.34;60.19;101178.34;4347732;32;19995;-85
2021/03/30 08:25:55;;;;;;;;;;;;;;;18.37;60.19;101174.72;4361522;32;20005;-85
2021/03/30 08:28:39;;;;;;;;;;;;;;;18.45;60.20;101175.25;4347714;32;20043;-85
2021/03/30 08:31:04;;;;;;;;;;;;;;;18.76;60.21;101168.72;4361501;32;20002;-85
2021/03/30 08:33:32;;;;;;;;;;;;;;;18.77;60.21;101170.44;4346873;32;37367;-85
2021/03/30 08:36:13;;;;;;;;;;;;;;;18.84;60.21;101159.53;4348266;32;20042;-85
2021/03/30 08:38:43;;;;;;;;;;;;;;;18.88;60.22;101169.03;4347497;32;20054;-85
2021/03/30 08:41:08;;;;;;;;;;;;;;;18.71;60.22;101166.28;4361429;32;19989;-85
2021/03/30 08:43:33;;;;;;;;;;;;;;;18.93;60.23;101174.12;4360038;32;20380;-85
2021/03/30 08:45:59;;;;;;;;;;;;;;;18.78;60.22;101166.88;4347837;32;20278;-85
2021/03/30 08:48:32;;;;;;;;;;;;;;;18.85;60.22;101168.31;4361317;32;19991;-85
2021/03/30 08:50:57;;;;;;;;;;;;;;;18.74;60.21;101174.06;4361673;32;19998;-85
2021/03/30 08:53:22;;;;;;;;;;;;;;;18.79;60.21;101177.34;4362237;32;20031;-85
2021/03/30 08:55:48;;;;;;;;;;;;;;;18.84;60.21;101182.44;4348068;32;20002;-85
2021/03/30 08:58:13;;;;;;;;;;;;;;;18.86;60.22;101180.56;4347837;32;25462;-85
2021/03/30 09:00:38;;;;;;;;;;;;;;;19.01;60.23;101177.28;4348249;32;20003;-85
2021/03/30 09:03:04;;;;;;;;;;;;;;;19.09;60.23;101187.47;4347350;32;31918;-86
2021/03/30 09:05:39;;;;;;;;;;;;;;;19.07;60.23;101189.34;4359230;32;20002;-86
2021/03/30 09:08:05;;;;;;;;;;;;;;;19.10;60.23;101176.84;4361376;32;20717;-85
2021/03/30 09:10:30;;;;;;;;;;;;;;;19.02;60.23;101176.34;4347235;32;20030;-85
2021/03/30 09:13:11;;;;;;;;;;;;;;;19.16;60.24;101179.22;4347517;32;19999;-85
2021/03/30 09:15:36;;;;;;;;;;;;;;;19.08;60.24;101178.72;4360264;32;19995;-85
2021/03/30 09:18:02;;;;;;;;;;;;;;;19.13;60.23;101174.06;4347507;32;20531;-85
2021/03/30 09:20:28;;;;;;;;;;;;;;;19.29;60.24;101179.53;4347284;32;19995;-87
2021/03/30 09:22:55;;;;;;;;;;;;;;;19.27;60.24;101179.59;4347605;32;20001;-85
2021/03/30 09:27:45;;;;;;;;;;;;;;;19.55;60.26;101179.22;4346405;32;20018;-86
2021/03/30 09:30:17;;;;;;;;;;;;;;;19.61;60.25;101175.44;4347255;32;20041;-86
2021/03/30 09:32:43;;;;;;;;;;;;;;;19.28;60.24;101170.75;4361879;32;20010;-86
2021/03/30 09:35:08;;;;;;;;;;;;;;;19.38;60.25;101171.19;4348066;32;19999;-85
2021/03/30 09:37:34;;;;;;;;;;;;;;;19.72;60.27;101174.94;4361673;32;20029;-84
2021/03/30 09:40:04;;;;;;;;;;;;;;;19.94;60.28;101165.06;4348054;32;20329;-85
2021/03/30 09:42:29;;;;;;;;;;;;;;;19.92;60.28;101157.22;4360536;32;20017;-84
2021/03/30 09:44:54;;;;;;;;;;;;;;;19.74;60.26;101158.09;4347432;32;31437;-84
2021/03/30 09:47:19;;;;;;;;;;;;;;;19.80;60.27;101156.94;4347170;32;37307;-84
2021/03/30 09:49:44;;;;;;;;;;;;;;;19.77;60.27;101157.09;4347703;32;20006;-85
2021/03/30 09:52:10;;;;;;;;;;;;;;;20.01;60.28;101158.53;4347299;32;33394;-84
2021/03/30 09:54:39;;;;;;;;;;;;;;;20.00;60.27;101155.97;4348038;32;20007;-84
2021/03/30 09:57:15;;;;;;;;;;;;;;;19.96;60.28;101165.84;4348202;32;20253;-85
2021/03/30 09:59:44;;;;;;;;;;;;;;;19.92;60.28;101165.13;4347675;32;19995;-86
2021/03/30 10:02:09;;;;;;;;;;;;;;;19.87;60.27;101175.09;4361637;32;19976;-85
2021/03/30 10:04:35;;;;;;;;;;;;;;;19.90;60.28;101167.00;4360618;32;36892;-85
2021/03/30 10:07:00;;;;;;;;;;;;;;;19.76;60.26;101166.78;4347691;32;20007;-86
2021/03/30 10:09:25;;;;;;;;;;;;;;;19.67;60.26;101169.03;4347581;32;19995;-86
2021/03/30 10:11:52;;;;;;;;;;;;;;;19.69;60.25;101169.81;4347150;32;35652;-85
2021/03/30 10:14:18;;;;;;;;;;;;;;;19.82;60.27;101163.00;4360144;32;20001;-85
2021/03/30 10:16:43;;;;;;;;;;;;;;;19.63;60.26;101169.16;4347933;32;20264;-86
2021/03/30 10:19:09;;;;;;;;;;;;;;;19.67;60.26;101174.31;4347174;32;20387;-84
2021/03/30 10:21:37;;;;;;;;;;;;;;;19.69;60.26;101168.03;4347067;32;19971;-84
2021/03/30 10:24:09;;;;;;;;;;;;;;;19.84;60.26;101164.62;4347873;32;20001;-84
2021/03/30 10:26:34;;;;;;;;;;;;;;;19.92;60.28;101165.13;4360014;32;20660;-84
2021/03/30 10:29:02;;;;;;;;;;;;;;;19.98;60.28;101160.47;4347160;32;26543;-84
2021/03/30 10:31:30;;;;;;;;;;;;;;;19.95;60.28;101163.28;4361289;32;20050;-85
2021/03/30 10:33:56;;;;;;;;;;;;;;;20.22;60.29;101152.19;4361194;32;19985;-84
2021/03/30 10:36:21;;;;;;;;;;;;;;;20.15;60.29;101145.50;4346959;32;26191;-84
2021/03/30 10:39:05;;;;;;;;;;;;;;;20.26;60.29;101142.31;4347654;32;20341;-84
2021/03/30 10:41:40;;;;;;;;;;;;;;;20.27;60.30;101148.47;4359961;32;20022;-84
2021/03/30 10:44:06;;;;;;;;;;;;;;;20.33;60.30;101146.38;4359914;32;19984;-84
2021/03/30 10:46:39;;;;;;;;;;;;;;;20.40;60.31;101142.53;4347417;32;20061;-84
2021/03/30 10:49:04;;;;;;;;;;;;;;;20.37;60.30;101140.00;4360844;32;20099;-84
2021/03/30 10:51:31;;;;;;;;;;;;;;;20.57;60.32;101135.50;4347522;32;19980;-84
2021/03/30 10:54:00;;;;;;;;;;;;;;;20.68;60.31;101134.03;4347503;32;19994;-84
2021/03/30 10:56:25;;;;;;;;;;;;;;;20.67;60.31;101128.81;4347195;32;20332;-84
2021/03/30 10:58:51;;;;;;;;;;;;;;;21.01;60.34;101127.88;4347306;32;20005;-84
2021/03/30 11:01:16;;;;;;;;;;;;;;;21.40;60.35;101128.41;4358488;32;38822;-85
2021/03/30 11:03:41;;;;;;;;;;;;;;;21.30;60.34;101131.66;4360932;32;20018;-84
2021/03/30 11:06:06;;;;;;;;;;;;;;;21.37;60.35;101119.78;4358834;32;39398;-84
2021/03/30 11:08:31;;;;;;;;;;;;;;;21.50;60.36;101130.53;4346585;32;29691;-84
2021/03/30 11:10:57;;;;;;;;;;;;;;;21.68;60.36;101124.22;4359348;32;20005;-84
2021/03/30 11:13:22;;;;;;;;;;;;;;;21.57;60.37;101119.53;4360819;32;20289;-84
2021/03/30 11:15:48;;;;;;;;;;;;;;;21.77;60.37;101118.44;4360172;32;25729;-85
2021/03/30 11:18:14;;;;;;;;;;;;;;;21.46;60.36;101121.91;4359367;32;19995;-84
2021/03/30 11:20:39;;;;;;;;;;;;;;;21.52;60.36;101118.91;4346310;32;26751;-84
2021/03/30 11:23:06;;;;;;;;;;;;;;;21.31;60.35;101120.12;4346254;32;32425;-84
2021/03/30 11:25:31;;;;;;;;;;;;;;;21.43;60.35;101120.28;4347329;32;20049;-84
2021/03/30 11:28:02;;;;;;;;;;;;;;;21.21;60.34;101114.44;4360752;32;20446;-84
2021/03/30 11:30:36;;;;;;;;;;;;;;;21.10;60.34;101109.72;4347358;32;19996;-84
2021/03/30 11:38:12;;;;;;;;;;;;;;;20.81;60.32;101113.06;4349867;32;19995;-84
2021/03/30 11:40:38;;;;;;;;;;;;;;;20.53;60.31;101121.59;4348653;32;20017;-84
2021/03/30 11:43:03;;;;;;;;;;;;;;;20.67;60.31;101116.44;4335970;32;20258;-84
2021/03/30 11:45:29;;;;;;;;;;;;;;;20.64;60.32;101115.75;4362221;32;20387;-84
2021/03/30 11:47:54;;;;;;;;;;;;;;;20.63;60.32;101111.41;4348162;32;30423;-84
2021/03/30 11:50:19;;;;;;;;;;;;;;;20.71;60.32;101107.41;4360449;32;36447;-85
2021/03/30 11:52:44;;;;;;;;;;;;;;;20.65;60.31;101106.88;4362255;32;20036;-86
2021/03/30 11:55:11;;;;;;;;;;;;;;;20.46;60.30;101099.03;4348789;32;20018;-85
2021/03/30 11:57:37;;;;;;;;;;;;;;;20.18;60.29;101104.84;4349290;32;20065;-85
2021/03/30 12:00:03;;;;;;;;;;;;;;;20.12;60.28;101106.03;4348646;32;20010;-85
2021/03/30 12:02:28;;;;;;;;;;;;;;;19.98;60.28;101105.84;4348903;32;20035;-85
2021/03/30 12:04:53;;;;;;;;;;;;;;;20.23;60.30;101103.69;4348560;32;22678;-84
2021/03/30 12:07:20;;;;;;;;;;;;;;;20.28;60.29;101107.87;4362588;32;19990;-85
2021/03/30 12:09:45;;;;;;;;;;;;;;;20.27;60.29;101092.94;4349062;32;20352;-84
2021/03/30 12:12:11;;;;;;;;;;;;;;;20.22;60.29;101101.97;4348247;32;30024;-86
2021/03/30 12:14:36;;;;;;;;;;;;;;;20.34;60.30;101096.97;4348562;32;20011;-85
2021/03/30 12:17:01;;;;;;;;;;;;;;;20.40;60.30;101092.28;4348937;32;20035;-85
2021/03/30 12:19:26;;;;;;;;;;;;;;;20.56;60.32;101086.19;4360526;32;23175;-86
2021/03/30 12:21:53;;;;;;;;;;;;;;;20.43;60.31;101083.31;4348654;32;20363;-85
2021/03/30 12:24:18;;;;;;;;;;;;;;;20.53;60.31;101084.53;4362304;32;20010;-86
2021/03/30 12:26:43;;;;;;;;;;;;;;;20.38;60.29;101078.25;4348624;32;19999;-86
2021/03/30 12:29:08;;;;;;;;;;;;;;;20.41;60.31;101071.97;4347939;32;19995;-86
2021/03/30 12:31:34;;;;;;;;;;;;;;;20.95;60.34;101062.03;4348110;32;26594;-85
2021/03/30 12:33:59;;;;;;;;;;;;;;;21.10;60.34;101059.44;4348573;32;20321;-86
2021/03/30 12:36:24;;;;;;;;;;;;;;;21.43;60.36;101053.22;4348521;32;20039;-85
2021/03/30 12:38:50;;;;;;;;;;;;;;;21.67;60.37;101051.81;4348527;32;20007;-85
2021/03/30 12:41:15;;;;;;;;;;;;;;;21.60;60.36;101050.47;4360040;32;26909;-86
2021/03/30 12:43:40;;;;;;;;;;;;;;;21.63;60.38;101055.59;4361743;32;20026;-85